Port Acres, Texas
Current Conditions -  °F | °C
As of 11:53 AM on Friday 24 Oct 2014 (Local Time) from KBPT Reporting Station
Clear Clear  
Wind Chill: 72°   Ceiling: Unl
Heat Index: 72°   Visibility: 10mi
Dew Point: 52°   Wind: 6mph
Humidity: 49%   Direction: NA
Pressure: 30.16"   Gusts: NA
Location:  29.7569°N, 94.1898°W
Report Text: KBPT 241653Z VRB05KT 10SM CLR 22/11 A3016 RMK AO2 SLP211 T02220111
Loading
Personal Weather Stations






























Interactive Weather Map New forecast layout! Learn more

10-Day Weather Forecast

Advertisements
Track Severe Weather on mobile